createdAt,value
2018-02-19T00:01:04.339Z,-0.80
2018-02-19T00:03:32.046Z,-0.80
2018-02-19T00:05:59.719Z,-0.60
2018-02-19T00:08:27.427Z,-0.70
2018-02-19T00:10:55.086Z,-0.80
2018-02-19T00:13:22.798Z,-0.90
2018-02-19T00:15:50.463Z,-0.90
2018-02-19T00:18:18.174Z,-1.00
2018-02-19T00:20:46.639Z,-1.10
2018-02-19T00:23:14.346Z,-1.10
2018-02-19T00:25:42.016Z,-1.20
2018-02-19T00:28:09.719Z,-1.20
2018-02-19T00:30:37.387Z,-1.10
2018-02-19T00:33:05.135Z,-1.10
2018-02-19T00:35:32.798Z,-1.10
2018-02-19T00:38:00.507Z,-1.00
2018-02-19T00:40:28.176Z,-1.10
2018-02-19T00:42:55.891Z,-1.20
2018-02-19T00:45:24.322Z,-1.50
2018-02-19T00:47:52.031Z,-1.50
2018-02-19T00:50:20.462Z,-1.50
2018-02-19T00:52:48.173Z,-1.50
2018-02-19T00:55:16.603Z,-1.10
2018-02-19T00:57:44.310Z,-1.10
2018-02-19T01:00:12.773Z,-1.40
2018-02-19T01:02:40.486Z,-1.40
2018-02-19T01:05:08.151Z,-1.40
2018-02-19T01:07:35.858Z,-1.50
2018-02-19T01:10:03.554Z,-1.60
2018-02-19T01:12:31.272Z,-1.70
2018-02-19T01:14:58.978Z,-1.60
2018-02-19T01:17:26.687Z,-1.50
2018-02-19T01:19:54.355Z,-1.50
2018-02-19T01:22:22.025Z,-1.40
2018-02-19T01:24:50.499Z,-1.60
2018-02-19T01:27:18.934Z,-1.60
2018-02-19T01:29:46.639Z,-1.60
2018-02-19T01:32:15.071Z,-1.70
2018-02-19T01:34:42.780Z,-1.70
2018-02-19T01:37:11.218Z,-1.60
2018-02-19T01:39:38.935Z,-1.60
2018-02-19T01:42:06.618Z,-1.50
2018-02-19T01:44:34.327Z,-1.50
2018-02-19T01:47:02.003Z,-1.60
2018-02-19T01:49:30.475Z,-1.50
2018-02-19T01:51:58.911Z,-1.40
2018-02-19T01:54:26.651Z,-1.40
2018-02-19T01:56:54.314Z,-1.40
2018-02-19T01:59:22.026Z,-1.50
2018-02-19T02:01:49.695Z,-1.70
2018-02-19T02:04:18.178Z,-1.50
2018-02-19T02:06:46.615Z,-1.60
2018-02-19T02:09:14.331Z,-1.60
2018-02-19T02:11:41.994Z,-1.70
2018-02-19T02:14:09.698Z,-1.70
2018-02-19T02:16:37.359Z,-1.80
2018-02-19T02:19:05.832Z,-1.90
2018-02-19T02:21:33.495Z,-1.90
2018-02-19T02:24:01.204Z,-1.70
2018-02-19T02:26:28.871Z,-1.80
2018-02-19T02:28:56.586Z,-1.60
2018-02-19T02:31:24.257Z,-1.60
2018-02-19T02:33:51.966Z,-1.60
2018-02-19T02:36:19.635Z,-1.70
2018-02-19T02:38:47.356Z,-1.70
2018-02-19T02:41:15.791Z,-1.80
2018-02-19T02:43:43.503Z,-1.80
2018-02-19T02:46:11.171Z,-1.60
2018-02-19T02:48:38.896Z,-1.50
2018-02-19T02:51:06.563Z,-1.60
2018-02-19T02:53:35.048Z,-2.10
2018-02-19T02:56:03.487Z,-2.10
2018-02-19T02:58:31.200Z,-2.10
2018-02-19T03:00:58.872Z,-1.80
2018-02-19T03:03:26.643Z,-1.90
2018-02-19T03:05:54.345Z,-2.00
2018-02-19T03:08:22.062Z,-2.00
2018-02-19T03:10:49.735Z,-2.00
2018-02-19T03:13:17.447Z,-1.90
2018-02-19T03:15:45.894Z,-1.80
2018-02-19T03:18:13.619Z,-1.80
2018-02-19T03:20:41.303Z,-1.80
2018-02-19T03:23:09.015Z,-1.90
2018-02-19T03:25:37.451Z,-1.90
2018-02-19T03:28:05.163Z,-1.90
2018-02-19T03:30:32.839Z,-1.80
2018-02-19T03:33:00.551Z,-1.80
2018-02-19T03:35:28.272Z,-1.80
2018-02-19T03:37:55.984Z,-1.80
2018-02-19T03:40:24.419Z,-2.00
2018-02-19T03:42:52.087Z,-2.00
2018-02-19T03:45:19.803Z,-1.80
2018-02-19T03:47:47.475Z,-1.80
2018-02-19T03:50:15.187Z,-2.00
2018-02-19T03:52:42.861Z,-1.90
2018-02-19T03:55:11.339Z,-2.00
2018-02-19T03:57:39.772Z,-1.90
2018-02-19T04:00:07.558Z,-1.90
2018-02-19T04:02:35.224Z,-1.70
2018-02-19T04:05:02.960Z,-1.80
2018-02-19T04:07:30.633Z,-1.80
2018-02-19T04:09:58.350Z,-1.80
2018-02-19T04:12:26.015Z,-1.80
2018-02-19T04:14:53.736Z,-1.80
2018-02-19T04:17:22.176Z,-1.80
2018-02-19T04:19:49.886Z,-1.80
2018-02-19T04:22:18.343Z,-1.90
2018-02-19T04:24:46.055Z,-1.90
2018-02-19T04:27:13.726Z,-1.90
2018-02-19T04:29:41.435Z,-2.00
2018-02-19T04:32:09.874Z,-1.90
2018-02-19T04:34:37.583Z,-1.90
2018-02-19T04:37:06.007Z,-1.80
2018-02-19T04:39:33.714Z,-1.80
2018-02-19T04:42:02.144Z,-1.90
2018-02-19T04:44:31.415Z,-1.90
2018-02-19T04:46:59.126Z,-2.00
2018-02-19T04:49:26.827Z,-2.00
2018-02-19T04:51:54.491Z,-2.00
2018-02-19T04:54:22.206Z,-2.10
2018-02-19T04:56:49.871Z,-2.00
2018-02-19T04:59:17.598Z,-2.00
2018-02-19T05:01:45.265Z,-1.80
2018-02-19T05:04:12.966Z,-1.90
2018-02-19T05:06:41.391Z,-1.90
2018-02-19T05:09:09.103Z,-1.90
2018-02-19T05:11:37.534Z,-1.80
2018-02-19T05:14:05.239Z,-1.80
2018-02-19T05:16:33.681Z,-1.80
2018-02-19T05:19:01.399Z,-1.80
2018-02-19T05:21:29.067Z,-1.90
2018-02-19T05:23:56.739Z,-1.90
2018-02-19T05:26:24.442Z,-1.80
2018-02-19T05:28:52.140Z,-1.90
2018-02-19T05:31:21.532Z,-1.80
2018-02-19T05:33:49.203Z,-1.80
2018-02-19T05:36:16.922Z,-1.90
2018-02-19T05:38:44.601Z,-1.90
2018-02-19T05:41:13.076Z,-2.10
2018-02-19T05:43:41.519Z,-2.00
2018-02-19T05:46:09.232Z,-2.00
2018-02-19T05:48:36.903Z,-2.00
2018-02-19T05:51:04.625Z,-2.00
2018-02-19T05:53:32.308Z,-2.10
2018-02-19T05:56:00.788Z,-2.20
2018-02-19T05:58:29.239Z,-2.00
2018-02-19T06:00:56.959Z,-2.10
2018-02-19T06:03:24.635Z,-1.90
2018-02-19T06:05:52.319Z,-2.00
2018-02-19T06:08:20.031Z,-2.10
2018-02-19T06:10:47.702Z,-2.10
2018-02-19T06:13:15.426Z,-2.20
2018-02-19T06:15:43.864Z,-2.00
2018-02-19T06:18:11.586Z,-2.10
2018-02-19T06:20:39.258Z,-2.00
2018-02-19T06:23:06.970Z,-2.10
2018-02-19T06:25:35.402Z,-2.10
2018-02-19T06:28:03.126Z,-2.20
2018-02-19T06:30:30.818Z,-2.30
2018-02-19T06:32:58.527Z,-2.50
2018-02-19T06:35:26.960Z,-2.20
2018-02-19T06:37:54.666Z,-2.20
2018-02-19T06:40:23.098Z,-2.20
2018-02-19T06:42:50.827Z,-2.20
2018-02-19T06:45:18.502Z,-2.20
2018-02-19T06:47:46.210Z,-2.10
2018-02-19T06:50:13.882Z,-2.20
2018-02-19T06:52:42.355Z,-2.40
2018-02-19T06:55:10.026Z,-2.40
2018-02-19T06:57:38.512Z,-2.40
2018-02-19T07:00:06.203Z,-2.40
2018-02-19T07:02:33.906Z,-2.40
2018-02-19T07:05:01.595Z,-2.50
2018-02-19T07:07:29.271Z,-2.40
2018-02-19T07:09:56.988Z,-2.40
2018-02-19T07:12:24.655Z,-2.30
2018-02-19T07:14:53.122Z,-2.10
2018-02-19T07:17:20.791Z,-2.10
2018-02-19T07:19:48.526Z,-1.90
2018-02-19T07:22:16.955Z,-1.80
2018-02-19T07:24:44.675Z,-1.80
2018-02-19T07:27:12.341Z,-1.90
2018-02-19T07:29:40.055Z,-1.90
2018-02-19T07:32:07.753Z,-1.60
2018-02-19T07:34:35.470Z,-1.60
2018-02-19T07:37:03.152Z,-1.50
2018-02-19T07:39:30.864Z,-1.30
2018-02-19T07:41:59.299Z,-1.20
2018-02-19T07:44:27.008Z,-1.20
2018-02-19T07:46:55.458Z,-1.20
2018-02-19T07:49:23.171Z,-1.20
2018-02-19T07:51:50.846Z,-1.30
2018-02-19T07:54:18.584Z,-1.50
2018-02-19T07:56:46.302Z,-1.40
2018-02-19T07:59:14.015Z,-1.00
2018-02-19T08:01:41.689Z,-1.00
2018-02-19T08:04:09.396Z,-1.00
2018-02-19T08:06:37.831Z,-0.80
2018-02-19T08:09:05.561Z,-0.80
2018-02-19T08:11:33.239Z,-0.90
2018-02-19T08:14:00.955Z,-0.90
2018-02-19T08:16:29.393Z,-1.00
2018-02-19T08:18:57.058Z,-1.00
2018-02-19T08:21:24.770Z,-0.80
2018-02-19T08:23:52.506Z,-0.50
2018-02-19T08:26:20.200Z,-0.40
2018-02-19T08:28:47.877Z,-0.30
2018-02-19T08:31:15.596Z,-0.30
2018-02-19T08:33:44.032Z,-0.10
2018-02-19T08:36:12.506Z,0.10
2018-02-19T08:38:40.948Z,0.30
2018-02-19T08:41:08.671Z,0.20
2018-02-19T08:43:36.334Z,0.30
2018-02-19T08:46:04.079Z,0.30
2018-02-19T08:48:31.750Z,0.50
2018-02-19T08:50:59.460Z,0.60
2018-02-19T08:53:27.139Z,0.80
2018-02-19T08:55:54.852Z,1.00
2018-02-19T08:58:23.292Z,1.30
2018-02-19T09:00:51.008Z,1.30
2018-02-19T09:03:18.679Z,1.40
2018-02-19T09:05:46.423Z,1.50
2018-02-19T09:08:14.087Z,1.50
2018-02-19T09:10:41.792Z,1.50
2018-02-19T09:13:09.453Z,1.50
2018-02-19T09:15:37.171Z,1.30
2018-02-19T09:18:04.843Z,1.50
2018-02-19T09:20:32.578Z,1.50
2018-02-19T09:23:01.051Z,1.30
2018-02-19T09:25:29.546Z,1.40
2018-02-19T09:27:57.227Z,1.40
2018-02-19T09:30:24.940Z,1.60
2018-02-19T09:32:52.618Z,1.90
2018-02-19T09:35:21.087Z,1.60
2018-02-19T09:37:49.515Z,1.90
2018-02-19T09:40:17.223Z,1.80
2018-02-19T09:42:45.668Z,2.00
2018-02-19T09:45:13.379Z,2.10
2018-02-19T09:47:41.047Z,2.20
2018-02-19T09:50:08.760Z,2.60
2018-02-19T09:52:36.435Z,3.00
2018-02-19T09:55:04.177Z,3.40
2018-02-19T09:57:31.844Z,3.80
2018-02-19T09:59:59.551Z,4.00
2018-02-19T10:02:27.211Z,4.00
2018-02-19T10:04:54.920Z,4.00
2018-02-19T10:07:22.584Z,4.20
2018-02-19T10:09:50.287Z,4.20
2018-02-19T10:12:17.946Z,4.20
2018-02-19T10:14:45.651Z,4.30
2018-02-19T10:17:13.316Z,4.10
2018-02-19T10:19:41.031Z,4.20
2018-02-19T10:22:08.710Z,4.40
2018-02-19T10:24:36.407Z,4.20
2018-02-19T10:27:04.080Z,4.10
2018-02-19T10:29:32.551Z,3.80
2018-02-19T10:32:00.223Z,3.80
2018-02-19T10:34:28.687Z,3.70
2018-02-19T10:36:56.354Z,3.70
2018-02-19T10:39:24.834Z,3.70
2018-02-19T10:41:53.302Z,3.90
2018-02-19T10:44:20.958Z,3.90
2018-02-19T10:46:48.663Z,4.00
2018-02-19T10:49:16.327Z,4.10
2018-02-19T10:51:44.027Z,4.10
2018-02-19T10:54:11.686Z,4.10
2018-02-19T10:56:39.392Z,4.20
2018-02-19T10:59:07.059Z,4.20
2018-02-19T11:01:34.763Z,4.40
2018-02-19T11:04:02.425Z,4.40
2018-02-19T11:06:30.132Z,4.50
2018-02-19T11:08:57.792Z,4.40
2018-02-19T11:11:25.488Z,4.60
2018-02-19T11:13:53.174Z,4.90
2018-02-19T11:16:20.879Z,4.90
2018-02-19T11:18:48.538Z,5.00
2018-02-19T11:21:16.287Z,5.20
2018-02-19T11:23:44.712Z,5.40
2018-02-19T11:26:12.420Z,5.40
2018-02-19T11:28:40.844Z,5.80
2018-02-19T11:31:08.539Z,5.80
2018-02-19T11:33:36.199Z,5.70
2018-02-19T11:36:04.670Z,5.40
2018-02-19T11:38:32.342Z,5.40
2018-02-19T11:41:00.820Z,5.50
2018-02-19T11:43:28.504Z,5.50
2018-02-19T11:45:56.224Z,5.30
2018-02-19T11:48:23.885Z,5.30
2018-02-19T11:50:51.599Z,5.00
2018-02-19T11:53:19.267Z,4.90
2018-02-19T11:55:46.992Z,4.90
2018-02-19T11:58:15.422Z,4.90
2018-02-19T12:00:43.899Z,5.00
2018-02-19T12:03:11.553Z,4.90
2018-02-19T12:05:39.262Z,5.00
2018-02-19T12:08:07.692Z,4.90
2018-02-19T12:10:35.387Z,4.90
2018-02-19T12:13:03.049Z,4.90
2018-02-19T12:15:31.528Z,4.90
2018-02-19T12:17:59.959Z,4.70
2018-02-19T12:20:27.689Z,4.70
2018-02-19T12:22:55.355Z,4.60
2018-02-19T12:25:23.056Z,4.80
2018-02-19T12:27:50.711Z,4.80
2018-02-19T12:30:18.420Z,4.90
2018-02-19T12:32:46.849Z,4.80
2018-02-19T12:35:14.552Z,4.80
2018-02-19T12:37:42.975Z,4.50
2018-02-19T12:40:10.735Z,4.50
2018-02-19T12:42:38.439Z,4.40
2018-02-19T12:45:06.144Z,4.40
2018-02-19T12:47:33.810Z,4.30
2018-02-19T12:50:01.519Z,4.30
2018-02-19T12:52:29.188Z,4.10
2018-02-19T12:54:57.615Z,4.40
2018-02-19T12:57:25.315Z,4.40
2018-02-19T12:59:52.978Z,4.40
2018-02-19T13:02:21.447Z,4.60
2018-02-19T13:04:49.115Z,4.60
2018-02-19T13:07:17.588Z,4.50
2018-02-19T13:09:45.246Z,4.50
2018-02-19T13:12:12.948Z,4.70
2018-02-19T13:14:40.603Z,4.80
2018-02-19T13:17:08.326Z,4.80
2018-02-19T13:19:35.991Z,4.90
2018-02-19T13:22:04.469Z,4.60
2018-02-19T13:24:32.903Z,4.60
2018-02-19T13:27:00.622Z,4.60
2018-02-19T13:29:29.042Z,4.30
2018-02-19T13:31:56.746Z,4.30
2018-02-19T13:34:25.182Z,4.80
2018-02-19T13:36:52.896Z,4.70
2018-02-19T13:39:21.333Z,4.80
2018-02-19T13:41:49.046Z,4.80
2018-02-19T13:44:16.732Z,4.80
2018-02-19T13:46:44.471Z,4.70
2018-02-19T13:49:12.159Z,4.90
2018-02-19T13:51:39.863Z,4.80
2018-02-19T13:54:08.291Z,4.90
2018-02-19T13:56:35.999Z,4.90
2018-02-19T13:59:04.427Z,4.90
2018-02-19T14:01:32.135Z,4.90
2018-02-19T14:04:00.569Z,4.30
2018-02-19T14:06:28.276Z,4.30
2018-02-19T14:08:55.976Z,4.60
2018-02-19T14:11:23.722Z,4.80
2018-02-19T14:13:51.391Z,4.90
2018-02-19T14:16:19.098Z,4.70
2018-02-19T14:18:46.782Z,4.60
2018-02-19T14:21:15.251Z,4.50
2018-02-19T14:23:42.916Z,4.50
2018-02-19T14:26:11.396Z,4.60
2018-02-19T14:28:39.835Z,4.60
2018-02-19T14:31:07.534Z,4.60
2018-02-19T14:33:35.970Z,4.40
2018-02-19T14:36:03.722Z,4.40
2018-02-19T14:38:31.389Z,4.60
2018-02-19T14:40:59.111Z,4.50
2018-02-19T14:43:26.770Z,4.30
2018-02-19T14:45:54.479Z,4.10
2018-02-19T14:48:22.167Z,4.20
2018-02-19T14:50:49.863Z,4.20
2018-02-19T14:53:18.772Z,4.30
2018-02-19T14:55:47.330Z,4.30
2018-02-19T14:58:14.992Z,4.30
2018-02-19T15:00:42.698Z,4.30
2018-02-19T15:03:10.359Z,4.20
2018-02-19T15:05:38.066Z,4.20
2018-02-19T15:08:05.735Z,4.10
2018-02-19T15:10:33.443Z,4.10
2018-02-19T15:13:01.115Z,4.10
2018-02-19T15:15:29.558Z,4.30
2018-02-19T15:17:57.269Z,4.20
2018-02-19T15:20:25.696Z,4.00
2018-02-19T15:22:53.407Z,4.00
2018-02-19T15:25:21.852Z,4.10
2018-02-19T15:27:50.152Z,4.10
2018-02-19T15:30:18.580Z,4.00
2018-02-19T15:32:46.295Z,3.90
2018-02-19T15:35:14.722Z,4.20
2018-02-19T15:37:42.431Z,4.20
2018-02-19T15:40:10.856Z,4.00
2018-02-19T15:42:38.564Z,4.00
2018-02-19T15:45:06.998Z,4.10
2018-02-19T15:47:34.703Z,4.10
2018-02-19T15:50:03.172Z,3.90
2018-02-19T15:52:31.650Z,4.10
2018-02-19T15:55:00.193Z,3.90
2018-02-19T15:57:27.904Z,3.90
2018-02-19T15:59:55.570Z,4.10
2018-02-19T16:02:23.272Z,4.10
2018-02-19T16:04:50.935Z,4.10
2018-02-19T16:07:18.634Z,3.60
2018-02-19T16:09:47.062Z,3.50
2018-02-19T16:12:14.763Z,3.50
2018-02-19T16:14:42.421Z,3.30
2018-02-19T16:17:10.970Z,3.50
2018-02-19T16:19:38.675Z,3.40
2018-02-19T16:22:07.152Z,3.50
2018-02-19T16:24:35.581Z,3.60
2018-02-19T16:27:03.292Z,3.60
2018-02-19T16:29:31.725Z,3.40
2018-02-19T16:31:59.426Z,3.40
2018-02-19T16:34:27.859Z,3.30
2018-02-19T16:36:56.331Z,3.30
2018-02-19T16:39:23.992Z,3.30
2018-02-19T16:41:51.696Z,3.10
2018-02-19T16:44:20.127Z,3.10
2018-02-19T16:46:47.842Z,3.10
2018-02-19T16:49:16.269Z,2.90
2018-02-19T16:51:43.974Z,2.80
2018-02-19T16:54:12.398Z,2.80
2018-02-19T16:56:40.107Z,2.80
2018-02-19T16:59:08.526Z,3.10
2018-02-19T17:01:36.235Z,3.00
2018-02-19T17:04:03.907Z,3.00
2018-02-19T17:06:32.391Z,2.90
2018-02-19T17:09:00.823Z,2.80
2018-02-19T17:11:28.519Z,2.80
2018-02-19T17:13:56.952Z,2.70
2018-02-19T17:16:24.660Z,2.70
2018-02-19T17:18:53.082Z,2.70
2018-02-19T17:21:21.707Z,2.60
2018-02-19T17:23:50.291Z,2.50
2018-02-19T17:26:18.739Z,2.50
2018-02-19T17:28:47.468Z,2.50
2018-02-19T17:31:16.331Z,2.30
2018-02-19T17:33:44.148Z,2.30
2018-02-19T17:36:13.531Z,2.10
2018-02-19T17:38:42.229Z,2.10
2018-02-19T17:41:10.775Z,2.10
2018-02-19T17:43:39.249Z,2.00
2018-02-19T17:46:06.912Z,2.00
2018-02-19T17:48:35.395Z,1.70
2018-02-19T17:51:03.835Z,1.70
2018-02-19T17:53:31.542Z,1.70
2018-02-19T17:55:59.972Z,1.70
2018-02-19T17:58:27.699Z,1.70
2018-02-19T18:00:55.386Z,1.90
2018-02-19T18:03:23.095Z,1.80
2018-02-19T18:05:51.520Z,1.90
2018-02-19T18:08:19.224Z,1.90
2018-02-19T18:10:47.656Z,2.10
2018-02-19T18:13:15.379Z,2.10
2018-02-19T18:15:43.102Z,2.10
2018-02-19T18:18:10.803Z,2.00
2018-02-19T18:20:38.527Z,1.80
2018-02-19T18:23:06.242Z,1.70
2018-02-19T18:25:33.911Z,1.80
2018-02-19T18:28:01.620Z,1.70
2018-02-19T18:30:30.068Z,1.60
2018-02-19T18:32:57.779Z,1.60
2018-02-19T18:35:26.218Z,1.70
2018-02-19T18:37:53.923Z,1.60
2018-02-19T18:40:21.595Z,1.70
2018-02-19T18:42:49.306Z,1.70
2018-02-19T18:45:16.970Z,1.50
2018-02-19T18:47:44.671Z,1.30
2018-02-19T18:50:12.335Z,1.30
2018-02-19T18:52:40.044Z,1.20
2018-02-19T18:55:07.760Z,1.20
2018-02-19T18:57:35.470Z,1.20
2018-02-19T19:00:03.205Z,1.10
2018-02-19T19:02:30.924Z,1.10
2018-02-19T19:04:58.600Z,1.20
2018-02-19T19:07:38.372Z,1.20
2018-02-19T19:10:17.967Z,1.40
2018-02-19T19:12:45.688Z,1.40
2018-02-19T19:15:13.375Z,1.30
2018-02-19T19:17:41.853Z,1.30
2018-02-19T19:20:10.312Z,1.30
2018-02-19T19:22:38.036Z,1.20
2018-02-19T19:25:05.722Z,1.40
2018-02-19T19:27:33.436Z,1.40
2018-02-19T19:30:01.118Z,1.60
2018-02-19T19:32:28.836Z,1.60
2018-02-19T19:34:56.504Z,1.70
2018-02-19T19:37:24.215Z,1.60
2018-02-19T19:39:51.896Z,1.40
2018-02-19T19:42:19.608Z,1.30
2018-02-19T19:44:47.298Z,1.20
2018-02-19T19:47:15.062Z,1.10
2018-02-19T19:49:42.715Z,1.00
2018-02-19T19:52:10.428Z,0.80
2018-02-19T19:54:38.123Z,0.70
2018-02-19T19:57:05.835Z,0.70
2018-02-19T19:59:34.279Z,0.60
2018-02-19T20:02:01.996Z,0.60
2018-02-19T20:04:29.667Z,0.60
2018-02-19T20:06:57.338Z,0.60
2018-02-19T20:09:25.068Z,0.50
2018-02-19T20:11:52.803Z,0.40
2018-02-19T20:14:21.300Z,0.70
2018-02-19T20:16:48.974Z,0.60
2018-02-19T20:19:16.684Z,1.00
2018-02-19T20:21:44.371Z,0.90
2018-02-19T20:24:13.072Z,0.90
2018-02-19T20:26:40.759Z,0.90
2018-02-19T20:29:08.508Z,1.00
2018-02-19T20:31:36.179Z,1.00
2018-02-19T20:34:03.900Z,0.90
2018-02-19T20:36:32.329Z,1.30
2018-02-19T20:39:00.060Z,1.30
2018-02-19T20:41:27.736Z,1.10
2018-02-19T20:43:55.472Z,0.90
2018-02-19T20:46:23.158Z,0.80
2018-02-19T20:48:50.871Z,1.00
2018-02-19T20:51:19.300Z,1.20
2018-02-19T20:53:47.023Z,1.20
2018-02-19T20:56:14.696Z,1.20
2018-02-19T20:58:42.410Z,1.10
2018-02-19T21:01:10.092Z,1.10
2018-02-19T21:03:38.615Z,0.70
2018-02-19T21:06:06.344Z,0.70
2018-02-19T21:08:34.064Z,0.60
2018-02-19T21:11:01.732Z,0.60
2018-02-19T21:13:29.448Z,0.60
2018-02-19T21:15:57.147Z,0.80
2018-02-19T21:18:24.864Z,0.70
2018-02-19T21:20:52.534Z,0.50
2018-02-19T21:23:20.257Z,0.50
2018-02-19T21:25:47.968Z,0.70
2018-02-19T21:28:15.711Z,1.00
2018-02-19T21:30:43.383Z,0.90
2018-02-19T21:33:11.109Z,1.10
2018-02-19T21:35:38.785Z,1.00
2018-02-19T21:38:06.511Z,1.10
2018-02-19T21:40:34.950Z,1.00
2018-02-19T21:43:02.665Z,0.90
2018-02-19T21:45:30.331Z,0.90
2018-02-19T21:47:58.068Z,1.00
2018-02-19T21:50:26.509Z,1.20
2018-02-19T21:52:54.224Z,1.10
2018-02-19T21:55:21.893Z,1.10
2018-02-19T21:57:49.623Z,1.00
2018-02-19T22:00:18.069Z,1.10
2018-02-19T22:02:45.780Z,1.10
2018-02-19T22:05:13.463Z,1.00
2018-02-19T22:07:41.175Z,0.90
2018-02-19T22:10:08.863Z,0.90
2018-02-19T22:12:36.568Z,0.90
2018-02-19T22:15:04.258Z,0.70
2018-02-19T22:17:31.967Z,0.60
2018-02-19T22:19:59.666Z,0.60
2018-02-19T22:22:27.335Z,0.70
2018-02-19T22:24:55.083Z,0.80
2018-02-19T22:27:22.752Z,0.90
2018-02-19T22:29:50.459Z,0.80
2018-02-19T22:32:18.140Z,0.80
2018-02-19T22:34:45.851Z,0.80
2018-02-19T22:37:14.287Z,0.80
2018-02-19T22:39:42.009Z,0.80
2018-02-19T22:42:09.675Z,0.90
2018-02-19T22:44:37.436Z,1.10
2018-02-19T22:47:05.095Z,1.30
2018-02-19T22:49:32.804Z,1.30
2018-02-19T22:52:00.471Z,1.20
2018-02-19T22:54:28.179Z,1.10
2018-02-19T22:56:55.871Z,1.00
2018-02-19T22:59:23.583Z,1.00
2018-02-19T23:01:51.247Z,1.00
2018-02-19T23:04:18.963Z,1.00
2018-02-19T23:06:46.655Z,1.00
2018-02-19T23:09:14.378Z,0.90
2018-02-19T23:11:42.058Z,0.90
2018-02-19T23:14:09.774Z,1.00
2018-02-19T23:16:37.443Z,0.90
2018-02-19T23:19:05.167Z,0.90
2018-02-19T23:21:32.835Z,1.00
2018-02-19T23:24:00.544Z,1.00
2018-02-19T23:26:28.220Z,0.90
2018-02-19T23:28:56.705Z,1.10
2018-02-19T23:31:24.381Z,1.10
2018-02-19T23:33:52.094Z,1.00
2018-02-19T23:36:19.762Z,0.90
2018-02-19T23:38:47.480Z,0.90
2018-02-19T23:41:15.156Z,0.90
2018-02-19T23:43:42.870Z,0.80
2018-02-19T23:46:11.311Z,0.70
2018-02-19T23:48:39.065Z,0.70
2018-02-19T23:51:06.730Z,1.10
2018-02-19T23:53:34.442Z,1.00
2018-02-19T23:56:02.111Z,0.70
2018-02-19T23:58:29.819Z,0.80
